sensor_id;sensor_type;location;lat;lon;timestamp;P1;durP1;ratioP1;P2;durP2;ratioP2
70683;SDS011;58263;48.146;11.440;2023-06-22T00:01:16;5.30;;;3.30;;
70683;SDS011;58263;48.146;11.440;2023-06-22T00:03:41;7.10;;;3.30;;
70683;SDS011;58263;48.146;11.440;2023-06-22T00:06:06;8.20;;;3.47;;
70683;SDS011;58263;48.146;11.440;2023-06-22T00:08:32;7.75;;;3.65;;
70683;SDS011;58263;48.146;11.440;2023-06-22T00:10:57;6.43;;;3.17;;
70683;SDS011;58263;48.146;11.440;2023-06-22T00:13:22;6.60;;;2.83;;
70683;SDS011;58263;48.146;11.440;2023-06-22T00:15:47;5.43;;;2.80;;
70683;SDS011;58263;48.146;11.440;2023-06-22T00:18:13;7.70;;;3.17;;
70683;SDS011;58263;48.146;11.440;2023-06-22T00:20:38;4.87;;;3.27;;
70683;SDS011;58263;48.146;11.440;2023-06-22T00:23:04;6.60;;;3.03;;
70683;SDS011;58263;48.146;11.440;2023-06-22T00:25:36;5.15;;;2.60;;
70683;SDS011;58263;48.146;11.440;2023-06-22T00:28:03;6.10;;;3.03;;
70683;SDS011;58263;48.146;11.440;2023-06-22T00:30:29;6.43;;;3.17;;
70683;SDS011;58263;48.146;11.440;2023-06-22T00:32:56;5.13;;;2.80;;
70683;SDS011;58263;48.146;11.440;2023-06-22T00:35:21;7.90;;;3.07;;
70683;SDS011;58263;48.146;11.440;2023-06-22T00:37:46;7.50;;;3.67;;
70683;SDS011;58263;48.146;11.440;2023-06-22T00:40:12;6.00;;;2.93;;
70683;SDS011;58263;48.146;11.440;2023-06-22T00:42:39;5.15;;;2.97;;
70683;SDS011;58263;48.146;11.440;2023-06-22T00:45:05;7.10;;;3.50;;
70683;SDS011;58263;48.146;11.440;2023-06-22T00:47:31;5.60;;;3.13;;
70683;SDS011;58263;48.146;11.440;2023-06-22T00:49:57;5.45;;;3.20;;
70683;SDS011;58263;48.146;11.440;2023-06-22T00:52:23;5.10;;;2.90;;
70683;SDS011;58263;48.146;11.440;2023-06-22T00:54:52;7.93;;;2.97;;
70683;SDS011;58263;48.146;11.440;2023-06-22T00:57:17;5.65;;;3.25;;
70683;SDS011;58263;48.146;11.440;2023-06-22T00:59:45;4.78;;;3.28;;
70683;SDS011;58263;48.146;11.440;2023-06-22T01:02:12;8.35;;;3.45;;
70683;SDS011;58263;48.146;11.440;2023-06-22T01:04:38;8.18;;;3.63;;
70683;SDS011;58263;48.146;11.440;2023-06-22T01:09:51;6.35;;;2.97;;
70683;SDS011;58263;48.146;11.440;2023-06-22T01:12:24;10.73;;;3.22;;
70683;SDS011;58263;48.146;11.440;2023-06-22T01:14:58;6.90;;;3.40;;
70683;SDS011;58263;48.146;11.440;2023-06-22T01:17:30;9.43;;;3.10;;
70683;SDS011;58263;48.146;11.440;2023-06-22T01:19:57;7.35;;;3.55;;
70683;SDS011;58263;48.146;11.440;2023-06-22T01:22:26;9.75;;;3.20;;
70683;SDS011;58263;48.146;11.440;2023-06-22T01:30:26;6.07;;;2.97;;
70683;SDS011;58263;48.146;11.440;2023-06-22T01:32:54;9.18;;;2.83;;
70683;SDS011;58263;48.146;11.440;2023-06-22T01:35:22;6.65;;;2.97;;
70683;SDS011;58263;48.146;11.440;2023-06-22T01:37:49;7.57;;;3.33;;
70683;SDS011;58263;48.146;11.440;2023-06-22T01:40:14;6.55;;;3.50;;
70683;SDS011;58263;48.146;11.440;2023-06-22T01:42:41;5.65;;;3.22;;
70683;SDS011;58263;48.146;11.440;2023-06-22T01:45:08;8.02;;;3.13;;
70683;SDS011;58263;48.146;11.440;2023-06-22T01:47:35;11.55;;;3.78;;
70683;SDS011;58263;48.146;11.440;2023-06-22T01:50:01;7.72;;;3.83;;
70683;SDS011;58263;48.146;11.440;2023-06-22T01:52:27;12.40;;;3.53;;
70683;SDS011;58263;48.146;11.440;2023-06-22T01:54:52;7.45;;;3.22;;
70683;SDS011;58263;48.146;11.440;2023-06-22T01:57:18;7.70;;;3.08;;
70683;SDS011;58263;48.146;11.440;2023-06-22T01:59:53;7.30;;;3.10;;
70683;SDS011;58263;48.146;11.440;2023-06-22T02:02:23;7.75;;;3.10;;
70683;SDS011;58263;48.146;11.440;2023-06-22T02:04:56;7.25;;;3.25;;
70683;SDS011;58263;48.146;11.440;2023-06-22T02:07:25;9.90;;;3.50;;
70683;SDS011;58263;48.146;11.440;2023-06-22T02:13:16;11.30;;;4.22;;
70683;SDS011;58263;48.146;11.440;2023-06-22T02:15:42;5.65;;;3.25;;
70683;SDS011;58263;48.146;11.440;2023-06-22T02:18:08;6.15;;;3.13;;
70683;SDS011;58263;48.146;11.440;2023-06-22T02:20:36;7.38;;;2.80;;
70683;SDS011;58263;48.146;11.440;2023-06-22T02:23:02;8.00;;;3.45;;
70683;SDS011;58263;48.146;11.440;2023-06-22T02:25:27;6.77;;;3.07;;
70683;SDS011;58263;48.146;11.440;2023-06-22T02:27:53;7.70;;;3.20;;
70683;SDS011;58263;48.146;11.440;2023-06-22T02:30:18;8.00;;;3.10;;
70683;SDS011;58263;48.146;11.440;2023-06-22T02:32:43;6.78;;;3.20;;
70683;SDS011;58263;48.146;11.440;2023-06-22T02:35:09;7.53;;;3.53;;
70683;SDS011;58263;48.146;11.440;2023-06-22T02:37:35;7.43;;;3.67;;
70683;SDS011;58263;48.146;11.440;2023-06-22T02:40:04;6.40;;;3.50;;
70683;SDS011;58263;48.146;11.440;2023-06-22T02:42:31;9.98;;;3.75;;
70683;SDS011;58263;48.146;11.440;2023-06-22T02:44:57;5.60;;;3.00;;
70683;SDS011;58263;48.146;11.440;2023-06-22T02:47:22;6.13;;;3.63;;
70683;SDS011;58263;48.146;11.440;2023-06-22T02:49:47;5.82;;;3.10;;
70683;SDS011;58263;48.146;11.440;2023-06-22T02:52:13;8.23;;;3.40;;
70683;SDS011;58263;48.146;11.440;2023-06-22T02:54:38;6.87;;;3.37;;
70683;SDS011;58263;48.146;11.440;2023-06-22T02:57:03;5.57;;;3.13;;
70683;SDS011;58263;48.146;11.440;2023-06-22T02:59:29;5.75;;;3.38;;
70683;SDS011;58263;48.146;11.440;2023-06-22T03:01:54;6.63;;;3.60;;
70683;SDS011;58263;48.146;11.440;2023-06-22T03:04:20;8.32;;;3.15;;
70683;SDS011;58263;48.146;11.440;2023-06-22T03:06:46;5.38;;;3.53;;
70683;SDS011;58263;48.146;11.440;2023-06-22T03:09:16;8.77;;;3.40;;
70683;SDS011;58263;48.146;11.440;2023-06-22T03:11:41;5.75;;;3.50;;
70683;SDS011;58263;48.146;11.440;2023-06-22T03:14:07;8.13;;;3.83;;
70683;SDS011;58263;48.146;11.440;2023-06-22T03:16:32;7.70;;;3.47;;
70683;SDS011;58263;48.146;11.440;2023-06-22T03:18:58;5.25;;;3.28;;
70683;SDS011;58263;48.146;11.440;2023-06-22T03:21:28;6.07;;;3.40;;
70683;SDS011;58263;48.146;11.440;2023-06-22T03:23:53;5.22;;;3.10;;
70683;SDS011;58263;48.146;11.440;2023-06-22T03:26:19;7.63;;;3.58;;
70683;SDS011;58263;48.146;11.440;2023-06-22T03:28:44;8.05;;;3.97;;
70683;SDS011;58263;48.146;11.440;2023-06-22T03:31:10;9.68;;;3.22;;
70683;SDS011;58263;48.146;11.440;2023-06-22T03:33:35;9.07;;;3.50;;
70683;SDS011;58263;48.146;11.440;2023-06-22T03:36:00;6.20;;;3.53;;
70683;SDS011;58263;48.146;11.440;2023-06-22T03:38:26;6.38;;;3.58;;
70683;SDS011;58263;48.146;11.440;2023-06-22T03:40:51;5.13;;;3.37;;
70683;SDS011;58263;48.146;11.440;2023-06-22T03:43:16;10.00;;;3.60;;
70683;SDS011;58263;48.146;11.440;2023-06-22T03:45:42;7.17;;;3.37;;
70683;SDS011;58263;48.146;11.440;2023-06-22T03:48:10;6.78;;;3.90;;
70683;SDS011;58263;48.146;11.440;2023-06-22T03:50:35;7.43;;;3.50;;
70683;SDS011;58263;48.146;11.440;2023-06-22T03:53:01;7.57;;;3.60;;
70683;SDS011;58263;48.146;11.440;2023-06-22T03:55:26;8.98;;;3.75;;
70683;SDS011;58263;48.146;11.440;2023-06-22T03:57:52;6.50;;;4.03;;
70683;SDS011;58263;48.146;11.440;2023-06-22T04:00:19;6.80;;;3.60;;
70683;SDS011;58263;48.146;11.440;2023-06-22T04:02:44;7.10;;;3.83;;
70683;SDS011;58263;48.146;11.440;2023-06-22T04:05:09;7.37;;;3.80;;
70683;SDS011;58263;48.146;11.440;2023-06-22T04:07:35;8.03;;;3.93;;
70683;SDS011;58263;48.146;11.440;2023-06-22T04:10:02;8.13;;;3.50;;
70683;SDS011;58263;48.146;11.440;2023-06-22T04:12:30;10.30;;;4.22;;
70683;SDS011;58263;48.146;11.440;2023-06-22T04:14:55;6.83;;;3.90;;
70683;SDS011;58263;48.146;11.440;2023-06-22T04:17:21;8.63;;;3.83;;
70683;SDS011;58263;48.146;11.440;2023-06-22T04:19:49;7.32;;;3.83;;
70683;SDS011;58263;48.146;11.440;2023-06-22T04:22:15;9.60;;;4.03;;
70683;SDS011;58263;48.146;11.440;2023-06-22T04:24:40;7.43;;;4.40;;
70683;SDS011;58263;48.146;11.440;2023-06-22T04:27:05;7.83;;;3.67;;
70683;SDS011;58263;48.146;11.440;2023-06-22T04:29:31;8.53;;;4.47;;
70683;SDS011;58263;48.146;11.440;2023-06-22T04:31:56;11.50;;;4.32;;
70683;SDS011;58263;48.146;11.440;2023-06-22T04:34:28;6.72;;;4.38;;
70683;SDS011;58263;48.146;11.440;2023-06-22T04:36:54;9.20;;;4.40;;
70683;SDS011;58263;48.146;11.440;2023-06-22T04:39:20;7.93;;;4.07;;
70683;SDS011;58263;48.146;11.440;2023-06-22T04:41:46;9.68;;;4.43;;
70683;SDS011;58263;48.146;11.440;2023-06-22T04:44:15;9.45;;;4.25;;
70683;SDS011;58263;48.146;11.440;2023-06-22T04:46:52;8.88;;;4.05;;
70683;SDS011;58263;48.146;11.440;2023-06-22T04:49:24;7.72;;;3.83;;
70683;SDS011;58263;48.146;11.440;2023-06-22T04:51:57;9.60;;;4.13;;
70683;SDS011;58263;48.146;11.440;2023-06-22T04:54:23;8.70;;;4.05;;
70683;SDS011;58263;48.146;11.440;2023-06-22T04:56:48;8.53;;;4.57;;
70683;SDS011;58263;48.146;11.440;2023-06-22T04:59:21;8.82;;;4.25;;
70683;SDS011;58263;48.146;11.440;2023-06-22T05:01:47;10.40;;;4.55;;
70683;SDS011;58263;48.146;11.440;2023-06-22T05:04:12;8.60;;;4.73;;
70683;SDS011;58263;48.146;11.440;2023-06-22T05:06:37;10.50;;;4.47;;
70683;SDS011;58263;48.146;11.440;2023-06-22T05:09:03;12.98;;;4.38;;
70683;SDS011;58263;48.146;11.440;2023-06-22T05:11:30;13.38;;;5.30;;
70683;SDS011;58263;48.146;11.440;2023-06-22T05:13:55;9.10;;;4.27;;
70683;SDS011;58263;48.146;11.440;2023-06-22T05:16:22;12.52;;;6.00;;
70683;SDS011;58263;48.146;11.440;2023-06-22T05:18:51;12.45;;;5.20;;
70683;SDS011;58263;48.146;11.440;2023-06-22T05:21:20;9.18;;;4.88;;
70683;SDS011;58263;48.146;11.440;2023-06-22T05:23:46;12.63;;;4.90;;
70683;SDS011;58263;48.146;11.440;2023-06-22T05:26:12;15.43;;;5.30;;
70683;SDS011;58263;48.146;11.440;2023-06-22T05:28:37;10.73;;;4.90;;
70683;SDS011;58263;48.146;11.440;2023-06-22T05:31:02;10.97;;;5.07;;
70683;SDS011;58263;48.146;11.440;2023-06-22T05:33:28;8.38;;;4.60;;
70683;SDS011;58263;48.146;11.440;2023-06-22T05:35:54;8.07;;;5.10;;
70683;SDS011;58263;48.146;11.440;2023-06-22T05:38:19;9.57;;;5.33;;
70683;SDS011;58263;48.146;11.440;2023-06-22T05:40:44;10.87;;;5.43;;
70683;SDS011;58263;48.146;11.440;2023-06-22T05:43:10;10.95;;;5.50;;
70683;SDS011;58263;48.146;11.440;2023-06-22T05:45:35;11.83;;;5.43;;
70683;SDS011;58263;48.146;11.440;2023-06-22T05:48:00;9.77;;;5.43;;
70683;SDS011;58263;48.146;11.440;2023-06-22T05:50:26;16.88;;;5.72;;
70683;SDS011;58263;48.146;11.440;2023-06-22T05:52:52;11.10;;;5.00;;
70683;SDS011;58263;48.146;11.440;2023-06-22T05:55:17;12.95;;;5.18;;
70683;SDS011;58263;48.146;11.440;2023-06-22T05:57:43;11.35;;;5.05;;
70683;SDS011;58263;48.146;11.440;2023-06-22T06:00:09;12.82;;;5.03;;
70683;SDS011;58263;48.146;11.440;2023-06-22T06:02:35;9.73;;;4.85;;
70683;SDS011;58263;48.146;11.440;2023-06-22T06:05:01;8.80;;;5.07;;
70683;SDS011;58263;48.146;11.440;2023-06-22T06:07:27;9.55;;;5.15;;
70683;SDS011;58263;48.146;11.440;2023-06-22T06:09:53;11.05;;;5.75;;
70683;SDS011;58263;48.146;11.440;2023-06-22T06:12:18;13.83;;;5.57;;
70683;SDS011;58263;48.146;11.440;2023-06-22T06:14:43;11.17;;;5.13;;
70683;SDS011;58263;48.146;11.440;2023-06-22T06:17:09;9.90;;;5.60;;
70683;SDS011;58263;48.146;11.440;2023-06-22T06:19:34;12.65;;;5.20;;
70683;SDS011;58263;48.146;11.440;2023-06-22T06:21:59;12.03;;;5.40;;
70683;SDS011;58263;48.146;11.440;2023-06-22T06:24:25;14.02;;;6.00;;
70683;SDS011;58263;48.146;11.440;2023-06-22T06:26:51;14.68;;;6.22;;
70683;SDS011;58263;48.146;11.440;2023-06-22T06:29:16;11.67;;;5.00;;
70683;SDS011;58263;48.146;11.440;2023-06-22T06:31:41;12.82;;;5.60;;
70683;SDS011;58263;48.146;11.440;2023-06-22T06:34:07;13.13;;;5.20;;
70683;SDS011;58263;48.146;11.440;2023-06-22T06:36:32;11.17;;;5.40;;
70683;SDS011;58263;48.146;11.440;2023-06-22T06:38:57;17.77;;;5.53;;
70683;SDS011;58263;48.146;11.440;2023-06-22T06:41:23;17.35;;;6.07;;
70683;SDS011;58263;48.146;11.440;2023-06-22T06:43:48;10.57;;;4.95;;
70683;SDS011;58263;48.146;11.440;2023-06-22T06:46:14;9.30;;;4.53;;
70683;SDS011;58263;48.146;11.440;2023-06-22T06:48:39;12.07;;;5.47;;
70683;SDS011;58263;48.146;11.440;2023-06-22T06:51:04;10.57;;;5.18;;
70683;SDS011;58263;48.146;11.440;2023-06-22T06:53:30;16.10;;;6.10;;
70683;SDS011;58263;48.146;11.440;2023-06-22T06:55:56;11.65;;;5.40;;
70683;SDS011;58263;48.146;11.440;2023-06-22T06:58:21;14.45;;;5.72;;
70683;SDS011;58263;48.146;11.440;2023-06-22T07:00:47;10.88;;;5.28;;
70683;SDS011;58263;48.146;11.440;2023-06-22T07:03:13;12.50;;;5.68;;
70683;SDS011;58263;48.146;11.440;2023-06-22T07:05:39;12.35;;;6.10;;
70683;SDS011;58263;48.146;11.440;2023-06-22T07:08:04;11.40;;;5.70;;
70683;SDS011;58263;48.146;11.440;2023-06-22T07:10:30;13.25;;;5.53;;
70683;SDS011;58263;48.146;11.440;2023-06-22T07:12:55;10.85;;;5.32;;
70683;SDS011;58263;48.146;11.440;2023-06-22T07:15:22;11.95;;;5.93;;
70683;SDS011;58263;48.146;11.440;2023-06-22T07:17:47;11.13;;;5.43;;
70683;SDS011;58263;48.146;11.440;2023-06-22T07:20:12;11.87;;;5.27;;
70683;SDS011;58263;48.146;11.440;2023-06-22T07:22:38;12.10;;;5.22;;
70683;SDS011;58263;48.146;11.440;2023-06-22T07:25:05;10.52;;;5.28;;
70683;SDS011;58263;48.146;11.440;2023-06-22T07:27:37;11.60;;;4.90;;
70683;SDS011;58263;48.146;11.440;2023-06-22T07:30:05;14.05;;;4.80;;
70683;SDS011;58263;48.146;11.440;2023-06-22T07:32:30;16.05;;;6.07;;
70683;SDS011;58263;48.146;11.440;2023-06-22T07:34:56;13.13;;;5.33;;
70683;SDS011;58263;48.146;11.440;2023-06-22T07:37:21;11.23;;;5.43;;
70683;SDS011;58263;48.146;11.440;2023-06-22T07:39:46;10.37;;;5.23;;
70683;SDS011;58263;48.146;11.440;2023-06-22T07:42:11;8.73;;;5.23;;
70683;SDS011;58263;48.146;11.440;2023-06-22T07:44:37;12.47;;;5.57;;
70683;SDS011;58263;48.146;11.440;2023-06-22T07:47:02;12.03;;;5.57;;
70683;SDS011;58263;48.146;11.440;2023-06-22T07:49:28;12.60;;;5.88;;
70683;SDS011;58263;48.146;11.440;2023-06-22T07:51:54;14.27;;;5.43;;
70683;SDS011;58263;48.146;11.440;2023-06-22T07:54:19;13.33;;;6.03;;
70683;SDS011;58263;48.146;11.440;2023-06-22T07:56:45;12.67;;;5.90;;
70683;SDS011;58263;48.146;11.440;2023-06-22T07:59:11;13.07;;;5.60;;
70683;SDS011;58263;48.146;11.440;2023-06-22T08:01:36;11.40;;;5.13;;
70683;SDS011;58263;48.146;11.440;2023-06-22T08:04:02;11.00;;;5.73;;
70683;SDS011;58263;48.146;11.440;2023-06-22T08:06:29;12.47;;;5.50;;
70683;SDS011;58263;48.146;11.440;2023-06-22T08:08:55;11.82;;;4.95;;
70683;SDS011;58263;48.146;11.440;2023-06-22T08:11:21;12.05;;;5.68;;
70683;SDS011;58263;48.146;11.440;2023-06-22T08:13:48;11.85;;;5.80;;
70683;SDS011;58263;48.146;11.440;2023-06-22T08:16:14;13.25;;;6.25;;
70683;SDS011;58263;48.146;11.440;2023-06-22T08:18:39;11.07;;;5.63;;
70683;SDS011;58263;48.146;11.440;2023-06-22T08:21:05;12.35;;;5.80;;
70683;SDS011;58263;48.146;11.440;2023-06-22T08:23:30;11.90;;;5.67;;
70683;SDS011;58263;48.146;11.440;2023-06-22T08:25:56;10.07;;;5.00;;
70683;SDS011;58263;48.146;11.440;2023-06-22T08:28:21;9.57;;;5.10;;
70683;SDS011;58263;48.146;11.440;2023-06-22T08:30:46;13.03;;;5.73;;
70683;SDS011;58263;48.146;11.440;2023-06-22T08:33:12;12.27;;;5.87;;
70683;SDS011;58263;48.146;11.440;2023-06-22T08:35:37;15.02;;;5.68;;
70683;SDS011;58263;48.146;11.440;2023-06-22T08:38:03;12.52;;;5.97;;
70683;SDS011;58263;48.146;11.440;2023-06-22T08:40:29;12.52;;;5.70;;
70683;SDS011;58263;48.146;11.440;2023-06-22T08:42:54;13.13;;;5.28;;
70683;SDS011;58263;48.146;11.440;2023-06-22T08:45:20;16.10;;;5.80;;
70683;SDS011;58263;48.146;11.440;2023-06-22T08:47:45;17.27;;;6.43;;
70683;SDS011;58263;48.146;11.440;2023-06-22T08:50:11;12.87;;;5.43;;
70683;SDS011;58263;48.146;11.440;2023-06-22T08:52:37;12.98;;;6.47;;
70683;SDS011;58263;48.146;11.440;2023-06-22T08:55:06;12.48;;;5.65;;
70683;SDS011;58263;48.146;11.440;2023-06-22T08:57:32;12.68;;;5.85;;
70683;SDS011;58263;48.146;11.440;2023-06-22T08:59:57;15.40;;;5.32;;
70683;SDS011;58263;48.146;11.440;2023-06-22T09:02:24;12.80;;;5.38;;
70683;SDS011;58263;48.146;11.440;2023-06-22T09:04:56;13.82;;;5.38;;
70683;SDS011;58263;48.146;11.440;2023-06-22T09:07:22;10.57;;;5.28;;
70683;SDS011;58263;48.146;11.440;2023-06-22T09:09:49;13.43;;;5.32;;
70683;SDS011;58263;48.146;11.440;2023-06-22T09:12:15;11.35;;;5.40;;
70683;SDS011;58263;48.146;11.440;2023-06-22T09:14:40;12.20;;;6.03;;
70683;SDS011;58263;48.146;11.440;2023-06-22T09:17:06;9.53;;;5.13;;
70683;SDS011;58263;48.146;11.440;2023-06-22T09:19:31;18.85;;;5.90;;
70683;SDS011;58263;48.146;11.440;2023-06-22T09:21:57;13.68;;;5.80;;
70683;SDS011;58263;48.146;11.440;2023-06-22T09:24:22;13.20;;;5.63;;
70683;SDS011;58263;48.146;11.440;2023-06-22T09:26:47;11.82;;;6.05;;
70683;SDS011;58263;48.146;11.440;2023-06-22T09:29:13;12.32;;;5.38;;
70683;SDS011;58263;48.146;11.440;2023-06-22T09:31:38;11.85;;;6.20;;
70683;SDS011;58263;48.146;11.440;2023-06-22T09:34:04;15.52;;;5.40;;
70683;SDS011;58263;48.146;11.440;2023-06-22T09:36:29;12.35;;;6.07;;
70683;SDS011;58263;48.146;11.440;2023-06-22T09:38:55;12.03;;;5.90;;
70683;SDS011;58263;48.146;11.440;2023-06-22T09:41:23;16.08;;;5.70;;
70683;SDS011;58263;48.146;11.440;2023-06-22T09:43:49;14.02;;;6.22;;
70683;SDS011;58263;48.146;11.440;2023-06-22T09:46:17;9.57;;;5.20;;
70683;SDS011;58263;48.146;11.440;2023-06-22T09:48:42;11.93;;;5.40;;
70683;SDS011;58263;48.146;11.440;2023-06-22T09:51:08;13.50;;;5.55;;
70683;SDS011;58263;48.146;11.440;2023-06-22T09:53:33;13.13;;;4.90;;
70683;SDS011;58263;48.146;11.440;2023-06-22T09:55:59;12.88;;;5.07;;
70683;SDS011;58263;48.146;11.440;2023-06-22T09:58:25;12.45;;;5.15;;
70683;SDS011;58263;48.146;11.440;2023-06-22T10:00:51;11.23;;;5.40;;
70683;SDS011;58263;48.146;11.440;2023-06-22T10:03:16;15.27;;;6.40;;
70683;SDS011;58263;48.146;11.440;2023-06-22T10:05:41;11.87;;;5.30;;
70683;SDS011;58263;48.146;11.440;2023-06-22T10:08:06;13.97;;;6.07;;
70683;SDS011;58263;48.146;11.440;2023-06-22T10:10:34;11.27;;;5.53;;
70683;SDS011;58263;48.146;11.440;2023-06-22T10:13:02;15.98;;;5.55;;
70683;SDS011;58263;48.146;11.440;2023-06-22T10:15:32;10.93;;;5.40;;
70683;SDS011;58263;48.146;11.440;2023-06-22T10:17:58;13.33;;;5.53;;
70683;SDS011;58263;48.146;11.440;2023-06-22T10:20:23;9.73;;;5.37;;
70683;SDS011;58263;48.146;11.440;2023-06-22T10:22:49;13.73;;;5.78;;
70683;SDS011;58263;48.146;11.440;2023-06-22T10:25:14;14.52;;;5.50;;
70683;SDS011;58263;48.146;11.440;2023-06-22T10:27:39;13.37;;;5.33;;
70683;SDS011;58263;48.146;11.440;2023-06-22T10:30:05;13.50;;;5.55;;
70683;SDS011;58263;48.146;11.440;2023-06-22T10:32:34;15.90;;;5.68;;
70683;SDS011;58263;48.146;11.440;2023-06-22T10:35:01;20.63;;;6.38;;
70683;SDS011;58263;48.146;11.440;2023-06-22T10:37:27;15.27;;;5.57;;
70683;SDS011;58263;48.146;11.440;2023-06-22T10:39:52;16.03;;;6.13;;
70683;SDS011;58263;48.146;11.440;2023-06-22T10:42:17;16.50;;;5.97;;
70683;SDS011;58263;48.146;11.440;2023-06-22T10:44:43;16.70;;;5.50;;
70683;SDS011;58263;48.146;11.440;2023-06-22T10:47:09;12.50;;;6.07;;
70683;SDS011;58263;48.146;11.440;2023-06-22T10:49:37;13.23;;;5.60;;
70683;SDS011;58263;48.146;11.440;2023-06-22T10:52:03;15.55;;;5.57;;
70683;SDS011;58263;48.146;11.440;2023-06-22T10:54:28;11.90;;;5.30;;
70683;SDS011;58263;48.146;11.440;2023-06-22T10:56:54;12.17;;;5.27;;
70683;SDS011;58263;48.146;11.440;2023-06-22T10:59:19;13.07;;;5.70;;
70683;SDS011;58263;48.146;11.440;2023-06-22T11:01:46;13.57;;;6.00;;
70683;SDS011;58263;48.146;11.440;2023-06-22T11:04:11;13.68;;;5.40;;
70683;SDS011;58263;48.146;11.440;2023-06-22T11:06:37;24.40;;;6.17;;
70683;SDS011;58263;48.146;11.440;2023-06-22T11:09:02;16.90;;;6.10;;
70683;SDS011;58263;48.146;11.440;2023-06-22T11:11:28;12.73;;;5.57;;
70683;SDS011;58263;48.146;11.440;2023-06-22T11:13:54;14.90;;;5.33;;
70683;SDS011;58263;48.146;11.440;2023-06-22T11:16:19;17.43;;;5.27;;
70683;SDS011;58263;48.146;11.440;2023-06-22T11:18:44;18.88;;;6.20;;
70683;SDS011;58263;48.146;11.440;2023-06-22T11:21:10;12.50;;;5.60;;
70683;SDS011;58263;48.146;11.440;2023-06-22T11:23:35;11.60;;;5.17;;
70683;SDS011;58263;48.146;11.440;2023-06-22T11:26:00;11.90;;;5.57;;
70683;SDS011;58263;48.146;11.440;2023-06-22T11:28:27;11.10;;;5.43;;
70683;SDS011;58263;48.146;11.440;2023-06-22T11:30:52;12.48;;;5.82;;
70683;SDS011;58263;48.146;11.440;2023-06-22T11:33:18;12.77;;;5.35;;
70683;SDS011;58263;48.146;11.440;2023-06-22T11:35:43;12.23;;;5.15;;
70683;SDS011;58263;48.146;11.440;2023-06-22T11:38:09;12.93;;;5.30;;
70683;SDS011;58263;48.146;11.440;2023-06-22T11:40:34;13.10;;;5.30;;
70683;SDS011;58263;48.146;11.440;2023-06-22T11:42:59;12.10;;;5.80;;
70683;SDS011;58263;48.146;11.440;2023-06-22T11:45:24;17.93;;;5.30;;
70683;SDS011;58263;48.146;11.440;2023-06-22T11:47:50;16.43;;;6.00;;
70683;SDS011;58263;48.146;11.440;2023-06-22T11:50:15;9.65;;;5.50;;
70683;SDS011;58263;48.146;11.440;2023-06-22T11:52:40;14.10;;;5.80;;
70683;SDS011;58263;48.146;11.440;2023-06-22T11:55:06;11.32;;;5.82;;
70683;SDS011;58263;48.146;11.440;2023-06-22T11:57:33;14.40;;;5.82;;
70683;SDS011;58263;48.146;11.440;2023-06-22T12:00:00;13.65;;;5.45;;
70683;SDS011;58263;48.146;11.440;2023-06-22T12:02:26;16.60;;;5.38;;
70683;SDS011;58263;48.146;11.440;2023-06-22T12:04:51;10.47;;;5.60;;
70683;SDS011;58263;48.146;11.440;2023-06-22T12:07:17;10.05;;;5.30;;
70683;SDS011;58263;48.146;11.440;2023-06-22T12:09:43;11.80;;;5.47;;
70683;SDS011;58263;48.146;11.440;2023-06-22T12:12:09;13.15;;;5.68;;
70683;SDS011;58263;48.146;11.440;2023-06-22T12:14:34;13.50;;;5.53;;
70683;SDS011;58263;48.146;11.440;2023-06-22T12:16:59;14.60;;;5.70;;
70683;SDS011;58263;48.146;11.440;2023-06-22T12:19:25;14.77;;;5.77;;
70683;SDS011;58263;48.146;11.440;2023-06-22T12:21:50;11.10;;;5.57;;
70683;SDS011;58263;48.146;11.440;2023-06-22T12:24:15;15.23;;;5.50;;
70683;SDS011;58263;48.146;11.440;2023-06-22T12:26:40;14.77;;;5.80;;
70683;SDS011;58263;48.146;11.440;2023-06-22T12:29:06;11.82;;;6.00;;
70683;SDS011;58263;48.146;11.440;2023-06-22T12:31:31;12.20;;;5.37;;
70683;SDS011;58263;48.146;11.440;2023-06-22T12:33:57;11.37;;;5.03;;
70683;SDS011;58263;48.146;11.440;2023-06-22T12:36:22;14.33;;;6.00;;
70683;SDS011;58263;48.146;11.440;2023-06-22T12:38:47;18.87;;;6.40;;
70683;SDS011;58263;48.146;11.440;2023-06-22T12:41:13;14.73;;;5.30;;
70683;SDS011;58263;48.146;11.440;2023-06-22T12:43:38;12.80;;;5.37;;
70683;SDS011;58263;48.146;11.440;2023-06-22T12:46:03;15.80;;;5.77;;
70683;SDS011;58263;48.146;11.440;2023-06-22T12:48:29;12.47;;;5.70;;
70683;SDS011;58263;48.146;11.440;2023-06-22T12:50:54;13.70;;;5.63;;
70683;SDS011;58263;48.146;11.440;2023-06-22T12:53:19;17.10;;;5.60;;
70683;SDS011;58263;48.146;11.440;2023-06-22T12:55:44;11.47;;;5.70;;
70683;SDS011;58263;48.146;11.440;2023-06-22T12:58:10;13.65;;;5.82;;
70683;SDS011;58263;48.146;11.440;2023-06-22T13:00:35;13.87;;;5.30;;
70683;SDS011;58263;48.146;11.440;2023-06-22T13:03:00;15.73;;;5.23;;
70683;SDS011;58263;48.146;11.440;2023-06-22T13:05:26;17.50;;;5.95;;
70683;SDS011;58263;48.146;11.440;2023-06-22T13:07:51;10.73;;;6.30;;
70683;SDS011;58263;48.146;11.440;2023-06-22T13:10:17;14.83;;;5.67;;
70683;SDS011;58263;48.146;11.440;2023-06-22T13:12:42;12.60;;;5.50;;
70683;SDS011;58263;48.146;11.440;2023-06-22T13:15:07;12.57;;;5.63;;
70683;SDS011;58263;48.146;11.440;2023-06-22T13:17:33;10.98;;;4.95;;
70683;SDS011;58263;48.146;11.440;2023-06-22T13:19:58;12.90;;;4.77;;
70683;SDS011;58263;48.146;11.440;2023-06-22T13:22:30;10.93;;;4.97;;
70683;SDS011;58263;48.146;11.440;2023-06-22T13:24:57;12.55;;;5.40;;
70683;SDS011;58263;48.146;11.440;2023-06-22T13:27:24;17.38;;;5.50;;
70683;SDS011;58263;48.146;11.440;2023-06-22T13:29:49;13.48;;;5.20;;
70683;SDS011;58263;48.146;11.440;2023-06-22T13:32:15;12.23;;;5.78;;
70683;SDS011;58263;48.146;11.440;2023-06-22T13:34:41;13.90;;;5.68;;
70683;SDS011;58263;48.146;11.440;2023-06-22T13:37:07;15.82;;;5.50;;
70683;SDS011;58263;48.146;11.440;2023-06-22T13:39:32;19.53;;;5.50;;
70683;SDS011;58263;48.146;11.440;2023-06-22T13:41:57;15.77;;;5.57;;
70683;SDS011;58263;48.146;11.440;2023-06-22T13:44:23;16.75;;;5.82;;
70683;SDS011;58263;48.146;11.440;2023-06-22T13:46:52;11.02;;;4.80;;
70683;SDS011;58263;48.146;11.440;2023-06-22T13:49:20;15.48;;;5.38;;
70683;SDS011;58263;48.146;11.440;2023-06-22T13:51:46;11.32;;;5.13;;
70683;SDS011;58263;48.146;11.440;2023-06-22T13:54:13;15.80;;;5.30;;
70683;SDS011;58263;48.146;11.440;2023-06-22T13:56:38;17.27;;;5.45;;
70683;SDS011;58263;48.146;11.440;2023-06-22T13:59:03;14.50;;;5.37;;
70683;SDS011;58263;48.146;11.440;2023-06-22T14:01:29;11.90;;;5.10;;
70683;SDS011;58263;48.146;11.440;2023-06-22T14:03:54;12.07;;;5.40;;
70683;SDS011;58263;48.146;11.440;2023-06-22T14:06:19;15.57;;;4.70;;
70683;SDS011;58263;48.146;11.440;2023-06-22T14:08:45;9.83;;;5.03;;
70683;SDS011;58263;48.146;11.440;2023-06-22T14:11:10;17.43;;;5.00;;
70683;SDS011;58263;48.146;11.440;2023-06-22T14:13:35;14.00;;;5.00;;
70683;SDS011;58263;48.146;11.440;2023-06-22T14:16:01;13.50;;;5.40;;
70683;SDS011;58263;48.146;11.440;2023-06-22T14:18:26;14.93;;;4.95;;
70683;SDS011;58263;48.146;11.440;2023-06-22T14:20:52;12.53;;;4.57;;
70683;SDS011;58263;48.146;11.440;2023-06-22T14:23:17;15.57;;;5.00;;
70683;SDS011;58263;48.146;11.440;2023-06-22T14:25:42;17.33;;;5.90;;
70683;SDS011;58263;48.146;11.440;2023-06-22T14:28:08;11.20;;;4.63;;
70683;SDS011;58263;48.146;11.440;2023-06-22T14:30:33;13.83;;;5.03;;